Time;durP1;ratioP1;P1;durP2;ratioP2;P2;SDS_P1;SDS_P2;PMS_P1;PMS_P2;Temp;Humidity;BMP_temperature;BMP_pressure;BME280_temperature;BME280_humidity;BME280_pressure;Samples;Min_cycle;Max_cycle;Signal;HPM_P1;HPM_P2
2021/11/04 00:01:51;;;;;;;9.48;4.80;;;8.60;99.90;;;;;;5075841;28;20035;-71
2021/11/04 00:04:17;;;;;;;14.63;11.02;;;8.50;99.90;;;;;;5075903;28;20024;-72
2021/11/04 00:06:42;;;;;;;14.27;10.50;;;8.50;99.90;;;;;;5075829;28;20090;-69
2021/11/04 00:09:08;;;;;;;9.80;5.70;;;8.40;99.90;;;;;;5076135;28;20024;-74
2021/11/04 00:11:34;;;;;;;7.95;5.07;;;8.40;99.90;;;;;;5075952;28;20035;-73
2021/11/04 00:13:59;;;;;;;16.27;8.65;;;8.30;99.90;;;;;;5075698;28;20095;-72
2021/11/04 00:16:25;;;;;;;12.40;7.53;;;8.30;99.90;;;;;;5074378;28;20120;-72
2021/11/04 00:18:50;;;;;;;8.85;5.93;;;8.30;99.90;;;;;;5075573;28;20067;-71
2021/11/04 00:21:16;;;;;;;10.40;6.43;;;8.30;99.90;;;;;;5075206;28;20071;-71
2021/11/04 00:23:42;;;;;;;10.18;5.38;;;8.40;99.90;;;;;;5075158;28;20074;-70
2021/11/04 00:26:07;;;;;;;7.68;4.38;;;8.40;99.90;;;;;;5075532;28;20522;-72
2021/11/04 00:28:33;;;;;;;8.18;4.88;;;8.40;99.90;;;;;;5075504;28;20025;-71
2021/11/04 00:30:59;;;;;;;7.20;4.43;;;8.40;99.90;;;;;;5075345;28;20032;-72
2021/11/04 00:33:25;;;;;;;7.72;4.45;;;8.40;99.90;;;;;;5075634;28;20026;-72
2021/11/04 00:35:50;;;;;;;8.07;4.57;;;8.50;99.90;;;;;;5075339;28;20434;-72
2021/11/04 00:38:17;;;;;;;8.05;4.30;;;8.50;99.90;;;;;;5073932;28;20024;-73
2021/11/04 00:40:42;;;;;;;8.07;4.35;;;8.50;99.90;;;;;;5075513;28;20509;-71
2021/11/04 00:43:08;;;;;;;7.38;3.90;;;8.60;99.90;;;;;;5075186;28;20025;-70
2021/11/04 00:45:34;;;;;;;7.20;4.03;;;8.60;99.90;;;;;;5075138;28;20029;-72
2021/11/04 00:47:59;;;;;;;6.35;4.13;;;8.60;99.90;;;;;;5075061;28;20043;-71
2021/11/04 00:50:26;;;;;;;6.20;4.07;;;8.60;99.90;;;;;;5074986;28;20028;-71
2021/11/04 00:52:52;;;;;;;7.32;4.43;;;8.60;99.90;;;;;;5075293;28;20016;-71
2021/11/04 00:55:18;;;;;;;7.75;4.90;;;8.60;99.90;;;;;;5075240;28;20025;-72
2021/11/04 00:57:44;;;;;;;7.03;4.70;;;8.60;99.90;;;;;;5074924;28;20608;-74
2021/11/04 01:00:13;;;;;;;9.75;5.40;;;8.60;99.90;;;;;;5075131;28;20368;-70
2021/11/04 01:02:39;;;;;;;9.15;4.95;;;8.60;99.90;;;;;;5074758;28;20020;-72
2021/11/04 01:05:06;;;;;;;8.20;5.13;;;8.70;99.90;;;;;;5074763;28;20035;-69
2021/11/04 01:07:32;;;;;;;5.97;3.70;;;8.70;99.90;;;;;;5074699;28;20052;-72
2021/11/04 01:09:57;;;;;;;6.97;4.30;;;8.70;99.90;;;;;;5074589;28;20064;-71
2021/11/04 01:12:24;;;;;;;8.50;4.60;;;8.60;99.90;;;;;;5074591;28;20017;-72
2021/11/04 01:14:49;;;;;;;7.75;4.00;;;8.60;99.90;;;;;;5074580;28;20362;-71
2021/11/04 01:17:15;;;;;;;5.82;3.80;;;8.60;99.90;;;;;;5074283;28;20021;-74
2021/11/04 01:19:41;;;;;;;10.25;4.45;;;8.50;99.90;;;;;;5074804;28;20025;-72
2021/11/04 01:22:07;;;;;;;6.80;4.20;;;8.60;99.90;;;;;;5073101;28;20537;-71
2021/11/04 01:24:33;;;;;;;8.38;3.80;;;8.70;99.90;;;;;;5074345;28;20032;-73
2021/11/04 01:26:58;;;;;;;6.85;4.18;;;8.80;99.90;;;;;;5074612;28;20035;-70
2021/11/04 01:29:24;;;;;;;9.95;4.15;;;8.80;99.90;;;;;;5074296;28;20020;-72
2021/11/04 01:31:50;;;;;;;10.10;3.95;;;8.80;99.90;;;;;;5074131;28;20028;-71
2021/11/04 01:34:15;;;;;;;4.82;3.50;;;8.80;99.90;;;;;;5073782;28;20017;-72
2021/11/04 01:36:41;;;;;;;6.97;4.05;;;8.90;99.90;;;;;;5074129;28;20024;-73
2021/11/04 01:39:07;;;;;;;5.32;3.38;;;9.00;99.90;;;;;;5074077;28;20032;-72
2021/11/04 01:41:33;;;;;;;4.47;2.90;;;9.00;99.90;;;;;;5073999;28;20038;-73
2021/11/04 01:43:59;;;;;;;9.10;3.40;;;9.00;99.90;;;;;;5074021;28;20024;-72
2021/11/04 01:46:26;;;;;;;5.82;3.10;;;9.00;99.90;;;;;;5074014;28;20025;-72
2021/11/04 01:48:51;;;;;;;5.47;3.08;;;9.00;99.90;;;;;;5074199;28;20029;-71
2021/11/04 01:51:18;;;;;;;5.72;3.17;;;9.10;99.90;;;;;;5073789;28;20025;-73
2021/11/04 01:53:45;;;;;;;4.65;2.65;;;9.00;99.90;;;;;;5074096;28;20028;-73
2021/11/04 01:56:11;;;;;;;5.55;3.00;;;9.00;99.90;;;;;;5073770;28;20039;-74
2021/11/04 01:58:37;;;;;;;8.43;3.15;;;8.90;99.90;;;;;;5073723;28;20494;-70
2021/11/04 02:01:03;;;;;;;6.72;2.90;;;8.90;99.90;;;;;;5073652;28;20085;-73
2021/11/04 02:03:38;;;;;;;5.43;2.30;;;8.90;99.90;;;;;;5073644;28;20032;-72
2021/11/04 02:06:38;;;;;;;3.63;2.22;;;8.90;99.90;;;;;;5074196;28;20079;-69
2021/11/04 02:09:19;;;;;;;5.00;2.13;;;8.80;99.90;;;;;;5062485;28;20037;-70
2021/11/04 02:11:52;;;;;;;3.50;2.05;;;8.90;99.90;;;;;;5073711;28;20028;-72
2021/11/04 02:14:23;;;;;;;2.75;1.90;;;8.90;99.90;;;;;;5074096;28;20086;-71
2021/11/04 02:16:52;;;;;;;3.78;1.48;;;8.90;99.90;;;;;;5073513;28;20504;-73
2021/11/04 02:19:35;;;;;;;1.83;1.40;;;8.90;99.90;;;;;;5073051;28;20395;-70
2021/11/04 02:22:04;;;;;;;2.22;1.63;;;8.90;99.90;;;;;;5073304;28;20048;-74
2021/11/04 02:24:43;;;;;;;2.25;0.95;;;8.90;99.90;;;;;;5073667;28;20105;-71
2021/11/04 02:27:11;;;;;;;1.00;0.90;;;9.00;99.90;;;;;;5073643;28;20096;-73
2021/11/04 02:29:40;;;;;;;3.55;1.25;;;9.00;99.90;;;;;;5073234;28;20432;-71
2021/11/04 02:32:07;;;;;;;0.60;0.60;;;9.00;99.90;;;;;;5073148;28;20487;-71
2021/11/04 02:34:34;;;;;;;0.90;0.70;;;9.00;99.90;;;;;;5073241;28;20016;-72
2021/11/04 02:37:01;;;;;;;2.78;1.30;;;9.00;99.90;;;;;;5073217;28;20596;-72
2021/11/04 02:39:28;;;;;;;2.15;1.20;;;9.00;99.90;;;;;;5073167;28;20020;-72
2021/11/04 02:41:54;;;;;;;1.48;1.20;;;9.00;99.90;;;;;;5073139;28;20028;-73
2021/11/04 02:44:20;;;;;;;3.10;1.35;;;8.90;99.90;;;;;;5072863;28;20516;-73
2021/11/04 02:46:46;;;;;;;1.52;1.20;;;8.90;99.90;;;;;;5072725;28;20029;-70
2021/11/04 02:49:12;;;;;;;2.15;1.50;;;8.90;99.90;;;;;;5073094;28;20437;-70
2021/11/04 02:51:38;;;;;;;2.25;1.27;;;9.00;99.90;;;;;;5073038;28;20025;-71
2021/11/04 02:54:09;;;;;;;1.50;1.20;;;9.10;99.90;;;;;;5073048;28;20035;-71
2021/11/04 02:56:42;;;;;;;2.58;1.38;;;9.10;99.90;;;;;;5073290;28;20069;-70
2021/11/04 02:59:09;;;;;;;3.45;1.30;;;9.20;99.90;;;;;;5073282;28;20382;-71
2021/11/04 03:01:35;;;;;;;1.60;1.20;;;9.10;99.90;;;;;;5072990;28;20020;-72
2021/11/04 03:04:00;;;;;;;4.78;1.80;;;9.00;99.90;;;;;;5073253;28;20032;-72
2021/11/04 03:06:26;;;;;;;2.00;1.52;;;9.00;99.90;;;;;;5072913;28;20146;-71
2021/11/04 03:08:52;;;;;;;2.47;1.50;;;8.90;99.90;;;;;;5073072;28;20078;-72
2021/11/04 03:11:17;;;;;;;2.30;1.52;;;8.90;99.90;;;;;;5073086;28;20032;-71
2021/11/04 03:13:43;;;;;;;1.67;1.38;;;8.90;99.90;;;;;;5073406;28;20020;-71
2021/11/04 03:16:11;;;;;;;5.15;1.98;;;9.00;99.90;;;;;;5072845;28;20074;-71
2021/11/04 03:18:37;;;;;;;2.80;1.67;;;9.00;99.90;;;;;;5072802;28;20119;-71
2021/11/04 03:21:04;;;;;;;2.97;1.65;;;8.90;99.90;;;;;;5073055;28;20032;-73
2021/11/04 03:23:30;;;;;;;4.28;2.53;;;8.90;99.90;;;;;;5072769;28;20116;-71
2021/11/04 03:25:56;;;;;;;5.55;3.20;;;8.80;99.90;;;;;;5072994;28;20394;-71
2021/11/04 03:28:24;;;;;;;7.30;3.53;;;8.70;99.90;;;;;;5072769;28;20028;-73
2021/11/04 03:30:51;;;;;;;5.65;3.05;;;8.80;99.90;;;;;;5072647;28;20047;-70
2021/11/04 03:33:18;;;;;;;5.45;3.10;;;8.80;99.90;;;;;;5071391;28;20029;-71
2021/11/04 03:35:45;;;;;;;5.22;3.15;;;8.80;99.90;;;;;;5072670;28;20475;-72
2021/11/04 03:38:12;;;;;;;10.80;4.35;;;8.70;99.90;;;;;;5072899;28;20020;-69
2021/11/04 03:40:39;;;;;;;8.63;4.50;;;8.80;99.90;;;;;;5072644;28;20020;-73
2021/11/04 03:43:06;;;;;;;7.53;4.53;;;8.70;99.90;;;;;;5072605;28;20025;-71
2021/11/04 03:45:34;;;;;;;10.30;5.15;;;8.70;99.90;;;;;;5072593;28;20699;-70
2021/11/04 03:48:00;;;;;;;7.28;4.53;;;8.60;99.90;;;;;;5072548;28;20025;-72
2021/11/04 03:50:28;;;;;;;14.00;8.70;;;8.60;99.90;;;;;;5072729;28;20028;-71
2021/11/04 03:52:54;;;;;;;12.75;8.18;;;8.60;99.90;;;;;;5072748;28;20028;-71
2021/11/04 03:55:22;;;;;;;9.88;5.30;;;8.60;99.90;;;;;;5072460;28;20023;-72
2021/11/04 03:57:50;;;;;;;8.13;4.40;;;8.70;99.90;;;;;;5075452;28;20108;-72
2021/11/04 04:00:16;;;;;;;8.13;3.85;;;8.70;99.90;;;;;;5076272;28;20020;-73
2021/11/04 04:02:46;;;;;;;6.93;4.05;;;8.70;99.90;;;;;;5075993;28;20107;-71
2021/11/04 04:05:12;;;;;;;8.65;4.70;;;8.70;99.90;;;;;;5075981;28;20028;-71
2021/11/04 04:07:38;;;;;;;8.25;4.82;;;8.70;99.90;;;;;;5076126;28;20123;-69
2021/11/04 04:10:04;;;;;;;6.25;3.30;;;8.70;99.90;;;;;;5075727;28;20092;-72
2021/11/04 04:12:30;;;;;;;6.13;4.10;;;8.60;99.90;;;;;;5076329;28;20020;-73
2021/11/04 04:14:55;;;;;;;8.05;4.28;;;8.60;99.90;;;;;;5076006;28;20027;-71
2021/11/04 04:17:22;;;;;;;7.90;4.40;;;8.60;99.90;;;;;;5075964;28;20024;-73
2021/11/04 04:19:49;;;;;;;8.32;4.45;;;8.50;99.90;;;;;;5075978;28;20031;-71
2021/11/04 04:22:15;;;;;;;9.05;4.90;;;8.50;99.90;;;;;;5075503;28;20024;-70
2021/11/04 04:24:41;;;;;;;6.68;3.72;;;8.40;99.90;;;;;;5075779;28;20021;-73
2021/11/04 04:27:06;;;;;;;5.03;3.30;;;8.40;99.90;;;;;;5075838;28;20035;-70
2021/11/04 04:29:32;;;;;;;5.03;3.20;;;8.40;99.90;;;;;;5075486;28;20032;-70
2021/11/04 04:31:59;;;;;;;6.65;3.47;;;8.40;99.90;;;;;;5075356;28;20032;-71
2021/11/04 04:34:25;;;;;;;5.80;3.38;;;8.40;99.90;;;;;;5074105;28;20025;-72
2021/11/04 04:36:51;;;;;;;7.05;4.22;;;8.40;99.90;;;;;;5075644;28;20453;-72
2021/11/04 04:39:17;;;;;;;6.78;3.63;;;8.30;99.90;;;;;;5075244;28;20079;-70
2021/11/04 04:41:43;;;;;;;5.97;3.95;;;8.30;99.90;;;;;;5075257;28;20033;-71
2021/11/04 04:44:08;;;;;;;5.20;3.67;;;8.20;99.90;;;;;;5075245;28;20490;-71
2021/11/04 04:46:34;;;;;;;5.80;3.47;;;8.10;99.90;;;;;;5075391;28;20554;-72
2021/11/04 04:49:00;;;;;;;5.28;3.20;;;8.10;99.90;;;;;;5073803;28;20116;-70
2021/11/04 04:51:25;;;;;;;7.43;3.72;;;8.10;99.90;;;;;;5075195;28;20397;-73
2021/11/04 04:53:51;;;;;;;4.47;3.00;;;8.20;99.90;;;;;;5075268;28;20020;-72
2021/11/04 04:56:17;;;;;;;5.85;3.58;;;8.20;99.90;;;;;;5075517;28;20020;-70
2021/11/04 04:58:43;;;;;;;8.52;3.97;;;8.20;99.90;;;;;;5074939;28;20021;-71
2021/11/04 05:01:08;;;;;;;5.18;3.28;;;8.10;99.90;;;;;;5074860;28;20037;-72
2021/11/04 05:03:34;;;;;;;7.45;4.60;;;8.10;99.90;;;;;;5074816;28;20020;-71
2021/11/04 05:06:00;;;;;;;9.20;5.40;;;8.10;99.90;;;;;;5074809;28;20465;-71
2021/11/04 05:08:26;;;;;;;9.68;4.85;;;8.10;99.90;;;;;;5073999;28;20571;-72
2021/11/04 05:10:51;;;;;;;8.13;4.35;;;8.10;99.90;;;;;;5074771;28;20028;-71
2021/11/04 05:13:17;;;;;;;6.85;4.07;;;8.10;99.90;;;;;;5074884;28;20024;-73
2021/11/04 05:15:43;;;;;;;5.28;3.45;;;8.20;99.90;;;;;;5074568;28;20035;-71
2021/11/04 05:18:09;;;;;;;6.13;3.75;;;8.20;99.90;;;;;;5074306;28;20462;-70
2021/11/04 05:20:38;;;;;;;9.60;4.30;;;8.30;99.90;;;;;;5074480;28;20023;-72
2021/11/04 05:23:05;;;;;;;7.55;4.22;;;8.30;99.90;;;;;;5074723;28;20042;-69
2021/11/04 05:25:31;;;;;;;7.13;3.67;;;8.30;99.90;;;;;;5074360;28;20095;-72
2021/11/04 05:27:57;;;;;;;5.00;2.90;;;8.30;99.90;;;;;;5074329;28;20020;-72
2021/11/04 05:30:22;;;;;;;6.15;2.60;;;8.30;99.90;;;;;;5074190;28;20032;-73
2021/11/04 05:32:48;;;;;;;4.78;2.70;;;8.30;99.90;;;;;;5074763;28;20016;-70
2021/11/04 05:35:17;;;;;;;4.32;2.50;;;8.30;99.90;;;;;;5074460;28;20471;-70
2021/11/04 05:37:43;;;;;;;4.22;2.20;;;8.30;99.90;;;;;;5074406;28;20062;-70
2021/11/04 05:40:10;;;;;;;5.88;2.72;;;8.40;99.90;;;;;;5074060;28;20051;-71
2021/11/04 05:42:35;;;;;;;6.93;2.40;;;8.40;99.90;;;;;;5074090;28;20032;-73
2021/11/04 05:45:01;;;;;;;4.22;2.55;;;8.40;99.90;;;;;;5074250;28;20382;-71
2021/11/04 05:47:26;;;;;;;8.90;3.00;;;8.40;99.90;;;;;;5073936;28;20060;-72
2021/11/04 05:49:52;;;;;;;3.70;2.47;;;8.50;99.90;;;;;;5074076;28;20032;-71
2021/11/04 05:52:18;;;;;;;5.97;2.50;;;8.60;99.90;;;;;;5074101;28;20021;-70
2021/11/04 05:54:44;;;;;;;4.68;2.60;;;8.60;99.90;;;;;;5073782;28;20039;-72
2021/11/04 05:57:10;;;;;;;5.22;2.65;;;8.60;99.90;;;;;;5073815;28;20021;-71
2021/11/04 05:59:35;;;;;;;4.25;2.83;;;8.60;99.90;;;;;;5073736;28;20013;-70
2021/11/04 06:02:01;;;;;;;4.15;2.33;;;8.60;99.90;;;;;;5073656;28;20036;-73
2021/11/04 06:04:32;;;;;;;5.18;3.13;;;8.60;99.90;;;;;;5073620;28;20031;-72
2021/11/04 06:06:58;;;;;;;5.07;2.92;;;8.60;99.90;;;;;;5073951;28;20028;-70
2021/11/04 06:09:24;;;;;;;4.93;2.75;;;8.60;99.90;;;;;;5073439;28;20048;-69
2021/11/04 06:11:50;;;;;;;4.88;2.60;;;8.60;99.90;;;;;;5073714;28;20037;-72
2021/11/04 06:14:16;;;;;;;4.13;2.50;;;8.60;99.90;;;;;;5073791;28;20021;-72
2021/11/04 06:16:42;;;;;;;3.75;2.30;;;8.60;99.90;;;;;;5073761;28;20035;-70
2021/11/04 06:19:07;;;;;;;5.55;2.78;;;8.70;99.90;;;;;;5073005;28;20067;-69
2021/11/04 06:21:33;;;;;;;5.70;2.55;;;8.60;99.90;;;;;;5073375;28;20506;-70
2021/11/04 06:23:58;;;;;;;7.07;2.70;;;8.60;99.90;;;;;;5073645;28;20474;-72
2021/11/04 06:26:24;;;;;;;6.03;3.47;;;8.60;99.90;;;;;;5073326;28;20478;-70
2021/11/04 06:28:50;;;;;;;7.13;3.78;;;8.50;99.90;;;;;;5073508;28;20021;-74
2021/11/04 06:31:15;;;;;;;7.40;3.55;;;8.50;99.90;;;;;;5073188;28;20067;-70
2021/11/04 06:33:41;;;;;;;6.75;3.83;;;8.50;99.90;;;;;;5073234;28;20013;-73
2021/11/04 06:36:07;;;;;;;10.38;6.15;;;8.50;99.90;;;;;;5073235;28;20059;-70
2021/11/04 06:38:34;;;;;;;11.98;5.53;;;8.40;99.90;;;;;;5073440;28;20083;-74
2021/11/04 06:41:00;;;;;;;11.55;6.57;;;8.40;99.90;;;;;;5073194;28;20055;-70
2021/11/04 06:43:27;;;;;;;13.13;7.78;;;8.40;99.90;;;;;;5073721;28;20024;-71
2021/11/04 06:45:54;;;;;;;49.08;32.33;;;8.30;99.90;;;;;;5073655;28;20090;-71
2021/11/04 06:48:25;;;;;;;33.47;21.23;;;8.20;99.90;;;;;;5073137;28;20020;-74
2021/11/04 06:50:56;;;;;;;8.57;4.20;;;8.30;99.90;;;;;;5071522;28;20028;-73
2021/11/04 06:53:24;;;;;;;;;;;8.30;99.90;;;;;;5074146;28;20095;-72
2021/11/04 06:55:52;;;;;;;8.77;5.60;;;8.20;99.90;;;;;;5073333;28;20358;-72
2021/11/04 06:58:23;;;;;;;6.68;4.32;;;8.20;99.90;;;;;;5073020;28;20121;-73
2021/11/04 07:00:49;;;;;;;;;;;8.20;99.90;;;;;;5073764;28;20016;-70
2021/11/04 07:03:26;;;;;;;7.97;4.18;;;8.20;99.90;;;;;;5073294;28;19908;-70
2021/11/04 07:06:11;;;;;;;9.15;3.95;;;8.20;99.90;;;;;;5073300;28;20147;-72
2021/11/04 07:08:43;;;;;;;5.63;3.53;;;8.20;99.90;;;;;;5073204;28;20103;-70
2021/11/04 07:11:09;;;;;;;6.85;3.80;;;8.10;99.90;;;;;;5071526;28;20035;-73
2021/11/04 07:13:36;;;;;;;6.45;4.00;;;8.20;99.90;;;;;;5072917;28;20024;-71
2021/11/04 07:16:03;;;;;;;8.27;4.47;;;8.30;99.90;;;;;;5073149;28;20086;-74
2021/11/04 07:18:29;;;;;;;6.60;4.60;;;8.30;99.90;;;;;;5072686;28;20040;-70
2021/11/04 07:21:05;;;;;;;5.97;3.58;;;8.40;99.90;;;;;;5073090;28;20053;-71
2021/11/04 07:23:52;;;;;;;10.65;6.72;;;8.40;99.90;;;;;;5073338;28;20024;-72
2021/11/04 07:26:20;;;;;;;10.02;6.35;;;8.40;99.90;;;;;;5073349;28;20433;-74
2021/11/04 07:28:54;;;;;;;12.80;7.13;;;8.40;99.90;;;;;;5072707;28;20448;-71
2021/11/04 07:31:22;;;;;;;12.07;5.00;;;8.40;99.90;;;;;;5073564;28;20478;-71
2021/11/04 07:33:49;;;;;;;6.90;3.40;;;8.40;99.90;;;;;;5076507;28;20013;-72
2021/11/04 07:36:16;;;;;;;10.63;6.13;;;8.40;99.90;;;;;;5076453;28;20029;-71
2021/11/04 07:38:45;;;;;;;12.52;9.45;;;8.30;99.90;;;;;;5076393;28;20021;-72
2021/11/04 07:41:10;;;;;;;6.28;3.78;;;8.20;99.90;;;;;;5076380;28;20375;-71
2021/11/04 07:43:37;;;;;;;9.43;4.10;;;8.20;99.90;;;;;;5076335;28;20103;-70
2021/11/04 07:46:02;;;;;;;11.77;6.93;;;8.20;99.90;;;;;;5076267;28;20032;-70
2021/11/04 07:48:28;;;;;;;6.00;3.47;;;8.20;99.90;;;;;;5076258;28;20028;-73
2021/11/04 07:50:55;;;;;;;5.70;3.40;;;8.20;99.90;;;;;;5076132;28;20021;-71
2021/11/04 07:53:21;;;;;;;5.03;3.25;;;8.20;99.90;;;;;;5076142;28;20048;-74
2021/11/04 07:55:47;;;;;;;5.95;2.90;;;8.20;99.90;;;;;;5076073;28;20478;-72
2021/11/04 07:58:14;;;;;;;4.63;2.92;;;8.20;99.90;;;;;;5076040;28;20548;-71
2021/11/04 08:00:41;;;;;;;5.90;3.17;;;8.30;99.90;;;;;;5076037;28;20028;-74
2021/11/04 08:03:07;;;;;;;6.40;3.92;;;8.30;99.90;;;;;;5076261;28;20029;-70
2021/11/04 08:05:33;;;;;;;7.55;3.33;;;8.30;99.90;;;;;;5076125;28;20028;-71
2021/11/04 08:07:59;;;;;;;8.10;3.50;;;8.40;99.90;;;;;;5075897;28;20078;-72
2021/11/04 08:10:24;;;;;;;6.32;3.25;;;8.50;99.90;;;;;;5075689;28;20025;-72
2021/11/04 08:12:50;;;;;;;5.80;3.10;;;8.60;99.90;;;;;;5076333;28;20020;-71
2021/11/04 08:15:17;;;;;;;9.02;3.55;;;8.70;99.90;;;;;;5075721;28;20087;-72
2021/11/04 08:17:43;;;;;;;13.50;7.20;;;8.80;99.90;;;;;;5075876;28;20386;-71
2021/11/04 08:20:10;;;;;;;19.33;10.70;;;8.90;99.90;;;;;;5075687;28;20029;-71
2021/11/04 08:22:36;;;;;;;16.05;10.00;;;9.00;99.90;;;;;;5075610;28;20089;-72
2021/11/04 08:25:05;;;;;;;20.52;12.80;;;9.00;99.90;;;;;;5075591;28;20032;-72
2021/11/04 08:27:32;;;;;;;19.98;13.13;;;9.00;99.90;;;;;;5074310;28;20024;-73
2021/11/04 08:29:58;;;;;;;16.67;10.70;;;8.80;99.90;;;;;;5075674;28;20028;-73
2021/11/04 08:32:24;;;;;;;15.93;10.88;;;8.80;99.90;;;;;;5075451;28;20020;-72
2021/11/04 08:34:49;;;;;;;11.45;7.47;;;8.80;99.90;;;;;;5075380;28;20016;-71
2021/11/04 08:37:16;;;;;;;5.18;3.38;;;8.90;99.90;;;;;;5075333;28;20029;-71
2021/11/04 08:39:41;;;;;;;5.70;3.22;;;8.90;99.90;;;;;;5075341;28;20017;-74
2021/11/04 08:42:08;;;;;;;10.35;5.82;;;9.00;99.90;;;;;;5074939;28;20504;-72
2021/11/04 08:44:34;;;;;;;5.88;3.00;;;9.20;99.90;;;;;;5074924;28;20029;-73
2021/11/04 08:47:00;;;;;;;4.90;2.42;;;9.30;99.90;;;;;;5075439;28;20028;-73
2021/11/04 08:49:26;;;;;;;4.38;2.13;;;9.40;99.90;;;;;;5074619;28;20421;-73
2021/11/04 08:51:55;;;;;;;3.88;1.90;;;9.40;99.90;;;;;;5074985;28;20111;-74
2021/11/04 08:54:25;;;;;;;5.13;2.33;;;9.30;99.90;;;;;;5075087;28;20017;-72
2021/11/04 08:56:51;;;;;;;3.83;2.20;;;9.20;99.90;;;;;;5074920;28;20029;-72
2021/11/04 08:59:17;;;;;;;4.55;2.03;;;9.20;99.90;;;;;;5074977;28;20054;-73
2021/11/04 09:01:44;;;;;;;3.20;1.70;;;9.20;99.90;;;;;;5074753;28;20040;-73
2021/11/04 09:04:11;;;;;;;4.28;2.67;;;9.20;99.90;;;;;;5074850;28;20104;-73
2021/11/04 09:06:36;;;;;;;3.78;1.90;;;9.20;99.90;;;;;;5074826;28;20020;-71
2021/11/04 09:09:03;;;;;;;4.70;1.90;;;9.30;99.90;;;;;;5074661;28;20028;-72
2021/11/04 09:11:30;;;;;;;2.88;1.80;;;9.30;99.90;;;;;;5075151;28;20035;-71
2021/11/04 09:13:58;;;;;;;2.90;1.80;;;9.40;99.90;;;;;;5074853;28;20095;-70
2021/11/04 09:16:24;;;;;;;3.30;1.75;;;9.30;99.90;;;;;;5074589;28;20142;-71
2021/11/04 09:18:50;;;;;;;3.83;2.10;;;9.40;99.90;;;;;;5074285;28;20158;-78
2021/11/04 09:21:16;;;;;;;4.13;2.03;;;9.40;99.90;;;;;;5074465;28;20066;-73
2021/11/04 09:23:41;;;;;;;4.75;2.08;;;9.50;99.90;;;;;;5074416;28;20017;-71
2021/11/04 09:26:07;;;;;;;4.35;1.58;;;9.70;99.90;;;;;;5074475;28;20031;-73
2021/11/04 09:28:33;;;;;;;4.25;1.90;;;9.80;99.90;;;;;;5074289;28;20500;-71
2021/11/04 09:30:58;;;;;;;3.42;1.90;;;10.10;99.90;;;;;;5074514;28;20032;-74
2021/11/04 09:33:24;;;;;;;5.53;2.10;;;10.30;99.90;;;;;;5074298;28;20013;-72
2021/11/04 09:35:50;;;;;;;6.80;2.53;;;10.60;99.90;;;;;;5074444;28;20470;-71
2021/11/04 09:38:16;;;;;;;7.68;1.60;;;10.90;99.90;;;;;;5074728;28;20059;-71
2021/11/04 09:40:41;;;;;;;2.60;1.33;;;11.10;99.90;;;;;;5074123;28;20454;-70
2021/11/04 09:43:07;;;;;;;3.78;1.17;;;11.10;99.90;;;;;;5074005;28;20020;-73
2021/11/04 09:45:34;;;;;;;3.03;0.90;;;11.00;99.90;;;;;;5074318;28;20074;-73
2021/11/04 09:47:59;;;;;;;2.00;1.00;;;11.00;99.90;;;;;;5074039;28;20017;-73
2021/11/04 09:50:25;;;;;;;4.03;1.45;;;10.90;99.90;;;;;;5074037;28;20040;-72
2021/11/04 09:52:55;;;;;;;1.70;0.90;;;11.00;99.90;;;;;;5073846;28;20017;-72
2021/11/04 09:55:25;;;;;;;1.98;1.05;;;10.90;99.90;;;;;;5073590;28;20471;-71
2021/11/04 09:57:54;;;;;;;3.03;1.00;;;10.70;99.90;;;;;;5074383;28;20024;-71
2021/11/04 10:00:22;;;;;;;1.25;0.90;;;10.50;99.90;;;;;;5073708;28;20029;-71
2021/11/04 10:03:11;;;;;;;3.08;1.10;;;10.50;99.90;;;;;;5073667;28;20021;-72
2021/11/04 10:05:45;;;;;;;3.08;0.85;;;10.50;99.90;;;;;;5074174;28;20109;-71
2021/11/04 10:08:14;;;;;;;2.75;1.23;;;10.50;99.90;;;;;;5072087;28;20029;-71
2021/11/04 10:10:41;;;;;;;3.13;1.63;;;10.60;99.90;;;;;;5073375;28;20048;-77
2021/11/04 10:13:08;;;;;;;3.83;1.27;;;10.70;99.90;;;;;;5073560;28;20544;-78
2021/11/04 10:15:37;;;;;;;4.07;1.42;;;10.70;99.90;;;;;;5073510;28;20486;-77
2021/11/04 10:18:18;;;;;;;5.32;1.23;;;10.70;99.90;;;;;;5073283;28;20044;-78
2021/11/04 10:20:51;;;;;;;2.55;1.20;;;10.70;99.90;;;;;;5073690;28;20031;-78
2021/11/04 10:23:17;;;;;;;1.70;1.20;;;10.60;99.90;;;;;;5071854;28;20032;-77
2021/11/04 10:25:43;;;;;;;3.78;1.58;;;10.60;99.90;;;;;;5073899;28;20470;-73
2021/11/04 10:28:30;;;;;;;4.05;1.60;;;10.50;99.90;;;;;;5073332;28;20091;-81
2021/11/04 10:30:58;;;;;;;2.70;1.20;;;10.70;99.90;;;;;;5072805;28;20040;-72
2021/11/04 10:33:32;;;;;;;7.15;1.63;;;10.80;99.90;;;;;;5073250;28;20477;-70
2021/11/04 10:36:07;;;;;;;2.08;1.10;;;10.80;99.90;;;;;;5073553;28;20021;-70
2021/11/04 10:38:34;;;;;;;2.90;1.63;;;10.90;99.90;;;;;;5073552;28;20107;-72
2021/11/04 10:41:05;;;;;;;5.65;1.70;;;11.20;99.90;;;;;;5072528;28;20037;-72
2021/11/04 10:43:30;;;;;;;5.63;1.50;;;11.20;99.90;;;;;;5073779;28;20031;-76
2021/11/04 10:46:10;;;;;;;4.03;1.30;;;11.30;99.90;;;;;;5073130;28;20024;-81
2021/11/04 10:48:38;;;;;;;2.53;1.10;;;11.30;99.90;;;;;;5055260;28;20513;-79
2021/11/04 10:51:04;;;;;;;3.78;1.30;;;11.40;99.90;;;;;;5072987;28;20115;-73
2021/11/04 10:53:29;;;;;;;2.38;1.13;;;11.60;99.90;;;;;;5073412;28;20028;-73
2021/11/04 10:56:11;;;;;;;4.47;1.30;;;11.70;99.90;;;;;;5071778;28;20029;-74
2021/11/04 10:58:37;;;;;;;5.25;1.65;;;11.50;99.90;;;;;;5071806;28;20381;-71
2021/11/04 11:01:03;;;;;;;2.10;0.90;;;11.40;99.90;;;;;;5071994;28;20099;-72
2021/11/04 11:03:30;;;;;;;5.03;1.95;;;11.40;99.90;;;;;;5071715;28;20107;-74
2021/11/04 11:06:05;;;;;;;5.85;1.40;;;11.40;99.90;;;;;;5071970;28;20470;-70
2021/11/04 11:08:32;;;;;;;4.97;1.40;;;11.40;99.90;;;;;;5075719;28;20043;-73
2021/11/04 11:10:57;;;;;;;3.80;1.23;;;11.40;99.90;;;;;;5076933;28;20482;-71
2021/11/04 11:13:23;;;;;;;5.18;1.15;;;11.50;99.90;;;;;;5076941;28;20027;-70
2021/11/04 11:15:55;;;;;;;2.13;1.20;;;11.40;99.90;;;;;;5076881;28;20031;-73
2021/11/04 11:18:29;;;;;;;5.50;1.55;;;11.40;99.90;;;;;;5076887;28;20041;-71
2021/11/04 11:20:55;;;;;;;3.30;1.10;;;11.30;99.90;;;;;;5077407;28;20029;-73
2021/11/04 11:23:23;;;;;;;2.55;0.98;;;11.20;99.90;;;;;;5076760;28;20029;-75
2021/11/04 11:25:56;;;;;;;1.77;0.82;;;11.10;99.90;;;;;;5076730;28;20110;-72
2021/11/04 11:28:28;;;;;;;4.38;1.40;;;11.00;99.90;;;;;;5076991;28;20028;-72
2021/11/04 11:31:09;;;;;;;4.35;1.38;;;11.00;99.90;;;;;;5075033;28;20040;-74
2021/11/04 11:33:42;;;;;;;4.00;1.13;;;11.00;99.90;;;;;;5076846;28;20466;-72
2021/11/04 11:36:10;;;;;;;4.68;0.93;;;11.10;99.90;;;;;;5076583;28;20074;-72
2021/11/04 11:38:55;;;;;;;2.13;0.80;;;11.20;99.90;;;;;;5076481;28;20017;-70
2021/11/04 11:41:28;;;;;;;2.67;1.00;;;11.30;99.90;;;;;;5076424;28;20021;-73
2021/11/04 11:44:07;;;;;;;7.65;0.98;;;11.50;99.90;;;;;;5076732;28;20100;-71
2021/11/04 11:47:03;;;;;;;3.47;0.40;;;11.70;99.90;;;;;;5076676;28;20426;-74
2021/11/04 11:49:30;;;;;;;0.55;0.40;;;11.80;99.90;;;;;;5076311;28;20078;-72
2021/11/04 11:51:57;;;;;;;1.50;0.60;;;11.80;99.90;;;;;;5076432;28;20565;-73
2021/11/04 11:54:52;;;;;;;2.67;0.70;;;11.70;99.90;;;;;;5076191;28;20048;-74
2021/11/04 11:57:18;;;;;;;2.33;0.80;;;11.50;99.90;;;;;;5076094;28;20020;-75
2021/11/04 11:59:59;;;;;;;4.45;0.77;;;11.40;99.90;;;;;;5076058;28;20023;-71
2021/11/04 12:02:37;;;;;;;2.67;0.70;;;11.40;99.90;;;;;;5076027;28;20025;-71
2021/11/04 12:05:28;;;;;;;1.20;0.70;;;11.30;99.90;;;;;;5075984;28;20025;-72
2021/11/04 12:08:19;;;;;;;6.68;0.95;;;11.20;99.90;;;;;;5069060;28;20041;-73
2021/11/04 12:10:46;;;;;;;0.70;0.60;;;11.00;99.90;;;;;;5068747;28;20090;-74
2021/11/04 12:13:32;;;;;;;5.07;0.93;;;11.00;99.90;;;;;;5075864;28;20024;-73
2021/11/04 12:16:20;;;;;;;2.40;1.05;;;11.00;99.90;;;;;;5076064;28;20020;-72
2021/11/04 12:18:59;;;;;;;3.25;1.27;;;10.90;99.90;;;;;;5075517;28;20055;-72
2021/11/04 12:21:33;;;;;;;1.77;0.85;;;11.00;99.90;;;;;;5075708;28;20020;-72
2021/11/04 12:24:02;;;;;;;2.20;1.10;;;11.00;99.90;;;;;;5075936;28;20028;-73
2021/11/04 12:26:28;;;;;;;5.18;1.00;;;11.10;99.90;;;;;;5076172;28;20108;-73
2021/11/04 12:28:54;;;;;;;6.70;1.33;;;11.30;99.90;;;;;;5075545;28;20043;-71
2021/11/04 12:31:23;;;;;;;4.88;1.10;;;11.40;99.90;;;;;;5075770;28;20025;-72
2021/11/04 12:33:53;;;;;;;5.10;1.25;;;11.70;99.90;;;;;;5075474;28;20078;-74
2021/11/04 12:36:37;;;;;;;3.58;1.38;;;11.90;99.90;;;;;;5075474;28;20022;-74
2021/11/04 12:39:05;;;;;;;6.13;1.33;;;11.90;99.90;;;;;;5075353;28;20103;-72
2021/11/04 12:41:31;;;;;;;2.10;0.98;;;11.90;99.90;;;;;;5075639;28;20096;-72
2021/11/04 12:44:02;;;;;;;2.30;0.90;;;11.80;99.90;;;;;;5075290;28;20071;-72
2021/11/04 12:46:30;;;;;;;6.43;1.25;;;11.70;99.90;;;;;;5075221;28;20028;-73
2021/11/04 12:49:02;;;;;;;3.80;0.85;;;11.70;99.90;;;;;;5075099;28;20103;-79
2021/11/04 12:51:50;;;;;;;1.10;0.70;;;11.60;99.90;;;;;;5075049;28;20108;-78
2021/11/04 12:54:20;;;;;;;1.95;0.77;;;11.50;99.90;;;;;;5075741;28;20451;-79
2021/11/04 12:56:57;;;;;;;3.88;0.60;;;11.40;99.90;;;;;;5075379;28;20020;-78
2021/11/04 12:59:31;;;;;;;1.38;0.60;;;11.30;99.90;;;;;;5075335;28;20115;-78